createdAt,value
2023-05-20T00:01:56.175Z,70.10
2023-05-20T00:04:23.001Z,70.20
2023-05-20T00:06:49.783Z,69.70
2023-05-20T00:09:17.352Z,69.50
2023-05-20T00:11:44.381Z,69.60
2023-05-20T00:14:11.094Z,70.20
2023-05-20T00:16:37.987Z,70.90
2023-05-20T00:19:04.719Z,71.70
2023-05-20T00:21:31.660Z,71.70
2023-05-20T00:23:58.574Z,72.20
2023-05-20T00:26:26.288Z,72.60
2023-05-20T00:28:52.988Z,72.30
2023-05-20T00:31:19.751Z,72.60
2023-05-20T00:33:46.690Z,72.90
2023-05-20T00:36:13.425Z,72.20
2023-05-20T00:38:40.210Z,72.60
2023-05-20T00:41:07.069Z,72.10
2023-05-20T00:43:33.830Z,71.90
2023-05-20T00:46:01.670Z,71.20
2023-05-20T00:48:36.529Z,70.80
2023-05-20T00:51:05.005Z,70.90
2023-05-20T00:53:32.479Z,70.40
2023-05-20T00:55:59.267Z,71.30
2023-05-20T00:58:26.416Z,71.60
2023-05-20T01:00:53.123Z,72.30
2023-05-20T01:03:20.017Z,72.20
2023-05-20T01:05:46.958Z,72.60
2023-05-20T01:08:13.904Z,73.00
2023-05-20T01:10:46.432Z,73.20
2023-05-20T01:13:20.110Z,72.90
2023-05-20T01:15:49.150Z,74.30
2023-05-20T01:18:18.340Z,74.40
2023-05-20T01:20:51.061Z,75.50
2023-05-20T01:23:17.763Z,75.30
2023-05-20T01:25:44.555Z,76.20
2023-05-20T01:28:17.720Z,77.60
2023-05-20T01:30:50.066Z,78.30
2023-05-20T01:33:19.325Z,78.90
2023-05-20T01:35:47.318Z,79.20
2023-05-20T01:38:15.753Z,79.10
2023-05-20T01:40:43.604Z,79.00
2023-05-20T01:43:10.929Z,79.60
2023-05-20T01:45:38.331Z,79.60
2023-05-20T01:48:05.518Z,80.20
2023-05-20T01:50:32.388Z,80.30
2023-05-20T01:52:59.315Z,79.00
2023-05-20T01:55:26.068Z,78.40
2023-05-20T01:57:52.861Z,78.20
2023-05-20T02:00:19.608Z,78.20
2023-05-20T02:02:46.427Z,78.40
2023-05-20T02:05:13.378Z,78.30
2023-05-20T02:07:40.128Z,78.70
2023-05-20T02:10:07.429Z,78.90
2023-05-20T02:12:34.168Z,78.30
2023-05-20T02:15:00.932Z,77.50
2023-05-20T02:17:27.775Z,77.00
2023-05-20T02:19:54.610Z,77.20
2023-05-20T02:22:21.358Z,77.10
2023-05-20T02:24:48.100Z,78.10
2023-05-20T02:27:14.910Z,77.70
2023-05-20T02:29:44.332Z,78.00
2023-05-20T02:32:11.283Z,78.20
2023-05-20T02:34:38.245Z,77.90
2023-05-20T02:37:05.255Z,78.20
2023-05-20T02:39:32.041Z,78.50
2023-05-20T02:41:58.770Z,78.20
2023-05-20T02:44:25.525Z,78.40
2023-05-20T02:46:52.286Z,78.90
2023-05-20T02:49:19.115Z,78.50
2023-05-20T02:51:45.882Z,78.30
2023-05-20T02:54:12.697Z,78.40
2023-05-20T02:56:39.505Z,78.00
2023-05-20T02:59:07.233Z,78.60
2023-05-20T03:01:35.549Z,78.80
2023-05-20T03:04:03.500Z,79.90
2023-05-20T03:06:31.863Z,80.60
2023-05-20T03:08:59.411Z,80.00
2023-05-20T03:11:26.370Z,79.10
2023-05-20T03:13:53.217Z,79.20
2023-05-20T03:16:20.004Z,79.20
2023-05-20T03:18:46.797Z,79.30
2023-05-20T03:21:13.593Z,80.30
2023-05-20T03:23:40.281Z,79.70
2023-05-20T03:26:07.080Z,80.20
2023-05-20T03:28:33.925Z,79.70
2023-05-20T03:31:02.530Z,78.80
2023-05-20T03:33:30.154Z,78.20
2023-05-20T03:35:56.967Z,78.90
2023-05-20T03:38:23.722Z,78.50
2023-05-20T03:40:50.478Z,78.20
2023-05-20T03:43:17.185Z,78.10
2023-05-20T03:45:43.958Z,78.40
2023-05-20T03:48:10.871Z,78.80
2023-05-20T03:50:37.615Z,79.40
2023-05-20T03:53:04.346Z,80.40
2023-05-20T03:55:32.409Z,80.60
2023-05-20T03:57:59.447Z,80.60
2023-05-20T04:00:26.161Z,80.90
2023-05-20T04:02:53.113Z,81.00
2023-05-20T04:05:20.026Z,81.40
2023-05-20T04:07:46.943Z,81.20
2023-05-20T04:10:13.703Z,81.80
2023-05-20T04:12:41.379Z,81.20
2023-05-20T04:15:08.987Z,81.40
2023-05-20T04:17:38.356Z,81.60
2023-05-20T04:20:07.353Z,81.80
2023-05-20T04:22:34.653Z,82.60
2023-05-20T04:25:04.763Z,82.40
2023-05-20T04:27:33.690Z,81.60
2023-05-20T04:30:02.296Z,82.00
2023-05-20T04:32:29.128Z,80.80
2023-05-20T04:34:56.157Z,80.90
2023-05-20T04:37:22.850Z,81.30
2023-05-20T04:39:49.998Z,81.90
2023-05-20T04:42:21.476Z,82.40
2023-05-20T04:44:48.785Z,82.20
2023-05-20T04:47:15.958Z,81.70
2023-05-20T04:49:42.649Z,81.20
2023-05-20T04:52:09.881Z,82.10
2023-05-20T04:54:36.600Z,81.90
2023-05-20T04:57:03.436Z,82.00
2023-05-20T04:59:30.232Z,82.40
2023-05-20T05:01:57.103Z,83.40
2023-05-20T05:04:23.986Z,83.40
2023-05-20T05:06:50.872Z,84.40
2023-05-20T05:09:17.664Z,84.60
2023-05-20T05:11:44.349Z,84.60
2023-05-20T05:14:11.190Z,85.00
2023-05-20T05:16:37.978Z,85.20
2023-05-20T05:19:04.785Z,85.30
2023-05-20T05:21:31.662Z,85.60
2023-05-20T05:23:58.560Z,85.40
2023-05-20T05:26:26.514Z,84.00
2023-05-20T05:28:55.239Z,83.30
2023-05-20T05:31:22.089Z,82.00
2023-05-20T05:33:48.966Z,82.30
2023-05-20T05:36:16.834Z,81.80
2023-05-20T05:38:44.426Z,83.70
2023-05-20T05:41:11.199Z,84.00
2023-05-20T05:43:37.976Z,84.50
2023-05-20T05:46:05.244Z,84.00
2023-05-20T05:48:32.086Z,84.50
2023-05-20T05:50:58.874Z,85.40
2023-05-20T05:53:25.731Z,85.40
2023-05-20T05:55:52.478Z,85.10
2023-05-20T05:58:19.245Z,84.10
2023-05-20T06:00:46.033Z,83.90
2023-05-20T06:03:13.016Z,83.80
2023-05-20T06:05:39.869Z,83.90
2023-05-20T06:08:06.627Z,83.10
2023-05-20T06:10:33.396Z,83.80
2023-05-20T06:13:00.168Z,84.30
2023-05-20T06:15:26.986Z,84.40
2023-05-20T06:17:53.733Z,83.40
2023-05-20T06:20:20.620Z,83.80
2023-05-20T06:22:47.378Z,83.40
2023-05-20T06:25:14.363Z,81.10
2023-05-20T06:27:41.190Z,80.50
2023-05-20T06:30:08.584Z,80.50
2023-05-20T06:32:35.421Z,79.60
2023-05-20T06:35:02.538Z,79.20
2023-05-20T06:37:29.367Z,78.60
2023-05-20T06:39:56.194Z,78.30
2023-05-20T06:42:23.029Z,77.90
2023-05-20T06:44:49.841Z,76.10
2023-05-20T06:47:17.504Z,75.00
2023-05-20T06:49:47.422Z,74.40
2023-05-20T06:52:14.586Z,75.40
2023-05-20T06:54:41.820Z,75.20
2023-05-20T06:57:09.209Z,73.70
2023-05-20T06:59:37.009Z,71.80
2023-05-20T07:02:04.479Z,72.00
2023-05-20T07:04:31.281Z,73.40
2023-05-20T07:06:58.103Z,72.80
2023-05-20T07:09:25.003Z,72.60
2023-05-20T07:11:51.815Z,73.00
2023-05-20T07:14:18.830Z,72.30
2023-05-20T07:16:45.602Z,72.70
2023-05-20T07:19:12.465Z,71.00
2023-05-20T07:21:39.455Z,68.00
2023-05-20T07:24:06.473Z,65.40
2023-05-20T07:26:36.762Z,64.90
2023-05-20T07:29:05.040Z,65.10
2023-05-20T07:31:31.929Z,63.80
2023-05-20T07:33:58.919Z,63.80
2023-05-20T07:36:28.800Z,64.90
2023-05-20T07:39:02.906Z,63.50
2023-05-20T07:41:30.307Z,64.10
2023-05-20T07:43:57.047Z,61.70
2023-05-20T07:46:24.395Z,62.70
2023-05-20T07:48:51.214Z,62.90
2023-05-20T07:51:18.927Z,63.50
2023-05-20T07:53:45.778Z,62.00
2023-05-20T07:56:12.675Z,61.10
2023-05-20T07:58:42.656Z,61.40
2023-05-20T08:01:10.058Z,62.00
2023-05-20T08:03:37.017Z,59.00
2023-05-20T08:06:04.036Z,56.60
2023-05-20T08:08:30.868Z,55.90
2023-05-20T08:10:57.638Z,54.80
2023-05-20T08:13:24.982Z,54.10
2023-05-20T08:15:53.871Z,52.30
2023-05-20T08:18:20.828Z,51.50
2023-05-20T08:20:48.024Z,51.50
2023-05-20T08:23:14.792Z,52.30
2023-05-20T08:25:41.656Z,53.50
2023-05-20T08:28:08.481Z,52.70
2023-05-20T08:30:35.274Z,50.00
2023-05-20T08:33:02.599Z,48.30
2023-05-20T08:35:29.613Z,48.90
2023-05-20T08:37:56.542Z,48.50
2023-05-20T08:40:23.624Z,48.20
2023-05-20T08:42:53.079Z,48.70
2023-05-20T08:45:24.224Z,48.90
2023-05-20T08:47:51.027Z,46.70
2023-05-20T08:50:18.336Z,46.40
2023-05-20T08:52:47.169Z,45.00
2023-05-20T08:55:27.092Z,44.80
2023-05-20T08:57:55.707Z,44.80
2023-05-20T09:00:27.224Z,42.40
2023-05-20T09:02:54.901Z,41.70
2023-05-20T09:05:22.821Z,41.90
2023-05-20T09:07:49.716Z,42.00
2023-05-20T09:10:16.819Z,42.50
2023-05-20T09:12:43.862Z,42.20
2023-05-20T09:15:11.631Z,43.10
2023-05-20T09:17:38.994Z,42.60
2023-05-20T09:20:11.576Z,43.10
2023-05-20T09:22:39.984Z,41.80
2023-05-20T09:25:07.986Z,41.00
2023-05-20T09:27:34.978Z,41.40
2023-05-20T09:30:01.846Z,40.20
2023-05-20T09:32:29.130Z,39.70
2023-05-20T09:34:56.111Z,37.70
2023-05-20T09:37:27.469Z,37.60
2023-05-20T09:40:10.037Z,37.80
2023-05-20T09:43:03.046Z,37.90
2023-05-20T09:45:30.480Z,37.80
2023-05-20T09:47:58.257Z,37.30
2023-05-20T09:50:26.716Z,37.90
2023-05-20T09:52:54.305Z,37.70
2023-05-20T09:55:24.291Z,38.60
2023-05-20T09:57:51.903Z,40.10
2023-05-20T10:00:19.576Z,39.50
2023-05-20T10:02:51.024Z,40.00
2023-05-20T10:05:24.281Z,39.30
2023-05-20T10:08:15.030Z,39.10
2023-05-20T10:10:49.819Z,38.80
2023-05-20T10:13:22.333Z,39.10
2023-05-20T10:16:30.613Z,37.10
2023-05-20T10:19:00.664Z,37.70
2023-05-20T10:21:27.479Z,37.90
2023-05-20T10:23:54.249Z,38.60
2023-05-20T10:26:22.402Z,37.90
2023-05-20T10:28:49.427Z,37.80
2023-05-20T10:31:18.041Z,38.50
2023-05-20T10:33:46.679Z,37.10
2023-05-20T10:36:45.258Z,36.80
2023-05-20T10:39:18.956Z,36.50
2023-05-20T10:41:45.825Z,36.70
2023-05-20T10:44:12.624Z,36.00
2023-05-20T10:46:57.234Z,35.70
2023-05-20T10:49:34.932Z,36.90
2023-05-20T10:52:02.513Z,38.20
2023-05-20T10:54:29.513Z,37.80
2023-05-20T10:56:57.206Z,38.90
2023-05-20T10:59:24.127Z,38.30
2023-05-20T11:01:51.377Z,38.40
2023-05-20T11:04:19.659Z,38.90
2023-05-20T11:06:56.076Z,38.70
2023-05-20T11:09:23.232Z,37.80
2023-05-20T11:11:52.235Z,38.90
2023-05-20T11:14:20.196Z,38.10
2023-05-20T11:16:50.869Z,38.20
2023-05-20T11:19:19.015Z,38.50
2023-05-20T11:21:47.055Z,38.90
2023-05-20T11:24:14.418Z,38.50
2023-05-20T11:26:41.357Z,39.30
2023-05-20T11:29:08.317Z,39.00
2023-05-20T11:31:38.157Z,39.10
2023-05-20T11:34:05.091Z,38.00
2023-05-20T11:36:32.469Z,38.70
2023-05-20T11:39:00.683Z,39.60
2023-05-20T11:41:28.280Z,39.40
2023-05-20T11:43:59.383Z,38.20
2023-05-20T11:46:27.538Z,37.10
2023-05-20T11:48:55.634Z,36.50
2023-05-20T11:51:29.554Z,35.70
2023-05-20T11:54:06.746Z,36.70
2023-05-20T11:56:36.559Z,37.30
2023-05-20T11:59:08.112Z,38.10
2023-05-20T12:01:43.542Z,37.90
2023-05-20T12:04:10.694Z,37.90
2023-05-20T12:06:37.801Z,37.80
2023-05-20T12:09:07.253Z,36.80
2023-05-20T12:11:39.748Z,36.30
2023-05-20T12:14:07.361Z,34.30
2023-05-20T12:16:35.226Z,34.30
2023-05-20T12:19:02.374Z,35.30
2023-05-20T12:21:29.999Z,36.00
2023-05-20T12:23:58.075Z,37.10
2023-05-20T12:26:26.068Z,35.30
2023-05-20T12:28:53.332Z,35.80
2023-05-20T12:31:20.304Z,35.30
2023-05-20T12:33:47.464Z,34.90
2023-05-20T12:36:15.099Z,34.20
2023-05-20T12:38:42.079Z,33.50
2023-05-20T12:41:08.991Z,34.30
2023-05-20T12:43:37.581Z,33.90
2023-05-20T12:46:05.011Z,33.90
2023-05-20T12:48:32.003Z,32.80
2023-05-20T12:50:58.832Z,32.70
2023-05-20T12:53:25.682Z,32.70
2023-05-20T12:55:52.563Z,33.10
2023-05-20T12:58:19.629Z,32.90
2023-05-20T13:00:46.428Z,33.50
2023-05-20T13:03:13.358Z,34.60
2023-05-20T13:05:40.408Z,33.60
2023-05-20T13:08:09.003Z,34.20
2023-05-20T13:10:36.248Z,34.70
2023-05-20T13:13:03.227Z,35.00
2023-05-20T13:15:30.011Z,33.80
2023-05-20T13:17:57.251Z,34.00
2023-05-20T13:20:24.088Z,33.70
2023-05-20T13:22:51.088Z,34.00
2023-05-20T13:25:17.967Z,33.60
2023-05-20T13:27:44.713Z,33.60
2023-05-20T13:30:11.756Z,34.40
2023-05-20T13:32:38.491Z,33.20
2023-05-20T13:35:05.725Z,33.10
2023-05-20T13:37:32.513Z,32.40
2023-05-20T13:39:59.297Z,32.10
2023-05-20T13:42:26.087Z,32.30
2023-05-20T13:44:52.856Z,31.70
2023-05-20T13:47:19.674Z,31.80
2023-05-20T13:49:46.460Z,31.80
2023-05-20T13:52:13.373Z,31.70
2023-05-20T13:54:40.520Z,31.40
2023-05-20T13:57:07.897Z,32.30
2023-05-20T13:59:35.224Z,32.60
2023-05-20T14:02:02.582Z,32.60
2023-05-20T14:04:31.265Z,33.00
2023-05-20T14:07:00.341Z,33.10
2023-05-20T14:09:27.099Z,34.50
2023-05-20T14:11:53.837Z,33.60
2023-05-20T14:14:20.712Z,33.60
2023-05-20T14:16:47.552Z,33.50
2023-05-20T14:19:14.432Z,32.40
2023-05-20T14:21:41.202Z,32.30
2023-05-20T14:24:07.980Z,32.20
2023-05-20T14:26:34.829Z,31.90
2023-05-20T14:29:01.729Z,31.50
2023-05-20T14:31:28.503Z,30.70
2023-05-20T14:33:55.306Z,30.90
2023-05-20T14:36:22.120Z,30.80
2023-05-20T14:38:49.746Z,32.20
2023-05-20T14:41:16.811Z,31.20
2023-05-20T14:43:43.567Z,31.00
2023-05-20T14:46:10.598Z,31.20
2023-05-20T14:48:37.471Z,31.20
2023-05-20T14:51:04.391Z,31.20
2023-05-20T14:53:31.369Z,31.50
2023-05-20T14:55:58.191Z,30.20
2023-05-20T14:58:25.393Z,30.20
2023-05-20T15:00:53.555Z,30.70
2023-05-20T15:03:20.511Z,30.50
2023-05-20T15:05:47.323Z,30.00
2023-05-20T15:08:14.197Z,30.60
2023-05-20T15:10:41.375Z,30.50
2023-05-20T15:13:08.160Z,31.00
2023-05-20T15:15:34.926Z,30.50
2023-05-20T15:18:01.974Z,30.40
2023-05-20T15:20:28.860Z,29.40
2023-05-20T15:22:56.392Z,29.30
2023-05-20T15:25:23.613Z,28.50
2023-05-20T15:27:50.508Z,28.80
2023-05-20T15:30:17.435Z,28.30
2023-05-20T15:32:44.377Z,29.20
2023-05-20T15:35:11.605Z,29.10
2023-05-20T15:37:38.503Z,29.30
2023-05-20T15:40:05.916Z,29.60
2023-05-20T15:42:32.843Z,29.40
2023-05-20T15:44:59.632Z,29.90
2023-05-20T15:47:26.493Z,30.60
2023-05-20T15:49:54.523Z,30.60
2023-05-20T15:52:21.316Z,30.80
2023-05-20T15:54:48.105Z,30.90
2023-05-20T15:57:14.872Z,31.00
2023-05-20T15:59:41.601Z,31.20
2023-05-20T16:02:08.398Z,30.40
2023-05-20T16:04:35.244Z,30.30
2023-05-20T16:07:02.126Z,31.20
2023-05-20T16:09:28.859Z,30.10
2023-05-20T16:11:56.284Z,30.60
2023-05-20T16:14:23.056Z,30.90
2023-05-20T16:16:49.894Z,31.10
2023-05-20T16:19:16.835Z,31.10
2023-05-20T16:21:44.303Z,31.80
2023-05-20T16:24:11.134Z,31.20
2023-05-20T16:26:38.026Z,31.70
2023-05-20T16:29:04.775Z,31.90
2023-05-20T16:31:31.574Z,31.80
2023-05-20T16:33:58.493Z,32.40
2023-05-20T16:36:26.053Z,32.80
2023-05-20T16:38:52.882Z,32.80
2023-05-20T16:41:19.785Z,32.40
2023-05-20T16:43:46.579Z,32.60
2023-05-20T16:46:14.637Z,33.40
2023-05-20T16:48:42.255Z,33.70
2023-05-20T16:51:09.011Z,33.80
2023-05-20T16:53:35.925Z,34.30
2023-05-20T16:56:02.970Z,34.00
2023-05-20T16:58:29.688Z,34.20
2023-05-20T17:00:56.630Z,34.30
2023-05-20T17:03:23.581Z,34.70
2023-05-20T17:05:50.455Z,34.60
2023-05-20T17:08:18.275Z,35.10
2023-05-20T17:10:45.197Z,34.80
2023-05-20T17:13:11.902Z,35.00
2023-05-20T17:15:38.703Z,35.30
2023-05-20T17:18:05.496Z,35.60
2023-05-20T17:20:33.080Z,35.80
2023-05-20T17:23:00.158Z,36.00
2023-05-20T17:25:26.906Z,36.10
2023-05-20T17:27:53.672Z,35.90
2023-05-20T17:30:20.590Z,35.90
2023-05-20T17:32:47.575Z,36.30
2023-05-20T17:35:14.550Z,36.30
2023-05-20T17:37:41.392Z,36.60
2023-05-20T17:40:08.688Z,36.90
2023-05-20T17:42:35.637Z,36.50
2023-05-20T17:45:02.350Z,36.40
2023-05-20T17:47:29.119Z,36.10
2023-05-20T17:49:55.994Z,36.40
2023-05-20T17:52:22.734Z,36.50
2023-05-20T17:54:49.556Z,36.30
2023-05-20T17:57:16.326Z,36.20
2023-05-20T17:59:45.346Z,36.20
2023-05-20T18:02:12.596Z,36.70
2023-05-20T18:04:39.390Z,36.80
2023-05-20T18:07:07.391Z,36.80
2023-05-20T18:09:34.272Z,36.90
2023-05-20T18:12:01.176Z,37.20
2023-05-20T18:14:27.906Z,37.30
2023-05-20T18:16:55.114Z,37.60
2023-05-20T18:19:24.730Z,37.70
2023-05-20T18:21:51.859Z,38.10
2023-05-20T18:24:20.443Z,38.40
2023-05-20T18:26:47.625Z,38.50
2023-05-20T18:29:14.456Z,38.60
2023-05-20T18:31:43.397Z,39.10
2023-05-20T18:34:10.794Z,39.10
2023-05-20T18:36:37.781Z,39.40
2023-05-20T18:39:04.991Z,39.80
2023-05-20T18:41:39.399Z,39.80
2023-05-20T18:44:12.620Z,40.30
2023-05-20T18:46:39.734Z,40.40
2023-05-20T18:49:06.933Z,40.50
2023-05-20T18:51:34.017Z,40.80
2023-05-20T18:54:00.940Z,41.00
2023-05-20T18:56:28.235Z,41.00
2023-05-20T18:58:55.439Z,41.40
2023-05-20T19:01:22.303Z,41.70
2023-05-20T19:03:49.086Z,41.90
2023-05-20T19:06:16.504Z,42.20
2023-05-20T19:08:43.977Z,42.20
2023-05-20T19:11:11.138Z,42.50
2023-05-20T19:13:38.031Z,42.60
2023-05-20T19:16:05.033Z,43.10
2023-05-20T19:18:31.833Z,43.50
2023-05-20T19:20:58.651Z,43.90
2023-05-20T19:23:25.701Z,44.30
2023-05-20T19:25:52.562Z,44.70
2023-05-20T19:28:19.415Z,44.90
2023-05-20T19:30:46.700Z,45.60
2023-05-20T19:33:13.473Z,45.80
2023-05-20T19:35:40.375Z,45.60
2023-05-20T19:38:07.453Z,45.70
2023-05-20T19:40:39.602Z,46.20
2023-05-20T19:43:07.144Z,46.20
2023-05-20T19:45:36.201Z,46.80
2023-05-20T19:48:04.312Z,47.10
2023-05-20T19:50:31.672Z,48.10
2023-05-20T19:52:58.740Z,48.40
2023-05-20T19:55:25.609Z,49.00
2023-05-20T19:57:53.566Z,49.20
2023-05-20T20:00:21.468Z,49.70
2023-05-20T20:02:48.884Z,50.00
2023-05-20T20:05:16.299Z,50.80
2023-05-20T20:07:43.082Z,51.00
2023-05-20T20:10:10.790Z,51.80
2023-05-20T20:12:37.746Z,51.80
2023-05-20T20:15:05.063Z,52.40
2023-05-20T20:17:33.712Z,52.50
2023-05-20T20:20:00.884Z,52.90
2023-05-20T20:22:28.646Z,53.50
2023-05-20T20:24:55.507Z,54.00
2023-05-20T20:27:23.954Z,54.30
2023-05-20T20:29:51.610Z,55.20
2023-05-20T20:32:18.677Z,55.80
2023-05-20T20:34:46.076Z,56.40
2023-05-20T20:37:16.543Z,56.80
2023-05-20T20:39:45.369Z,56.80
2023-05-20T20:42:12.371Z,56.70
2023-05-20T20:44:42.626Z,57.20
2023-05-20T20:47:10.020Z,57.60
2023-05-20T20:49:37.015Z,58.30
2023-05-20T20:52:03.919Z,58.70
2023-05-20T20:54:32.905Z,59.20
2023-05-20T20:57:00.024Z,59.50
2023-05-20T20:59:26.970Z,59.90
2023-05-20T21:01:54.511Z,60.20
2023-05-20T21:04:21.547Z,60.60
2023-05-20T21:06:52.489Z,61.20
2023-05-20T21:09:19.397Z,61.50
2023-05-20T21:11:49.238Z,61.20
2023-05-20T21:14:16.033Z,61.50
2023-05-20T21:16:43.324Z,62.00
2023-05-20T21:19:10.368Z,62.20
2023-05-20T21:21:37.662Z,62.50
2023-05-20T21:24:04.511Z,62.90
2023-05-20T21:26:31.224Z,63.00
2023-05-20T21:28:58.369Z,62.70
2023-05-20T21:31:28.494Z,63.00
2023-05-20T21:33:55.599Z,63.20
2023-05-20T21:36:23.081Z,63.70
2023-05-20T21:38:50.354Z,63.70
2023-05-20T21:41:17.116Z,64.20
2023-05-20T21:43:43.880Z,63.90
2023-05-20T21:46:11.612Z,64.30
2023-05-20T21:48:38.442Z,64.20
2023-05-20T21:51:05.377Z,64.50
2023-05-20T21:53:32.428Z,64.10
2023-05-20T21:55:59.523Z,64.40
2023-05-20T21:58:26.667Z,64.70
2023-05-20T22:00:53.523Z,64.90
2023-05-20T22:03:20.358Z,65.30
2023-05-20T22:05:47.118Z,65.50
2023-05-20T22:08:14.044Z,65.10
2023-05-20T22:10:40.781Z,65.20
2023-05-20T22:13:11.144Z,65.10
2023-05-20T22:15:38.091Z,65.20
2023-05-20T22:18:07.639Z,64.90
2023-05-20T22:20:34.872Z,65.30
2023-05-20T22:23:02.148Z,65.40
2023-05-20T22:25:28.950Z,65.70
2023-05-20T22:27:55.939Z,65.70
2023-05-20T22:30:22.769Z,66.30
2023-05-20T22:32:49.919Z,66.40
2023-05-20T22:35:17.190Z,65.70
2023-05-20T22:37:44.025Z,66.20
2023-05-20T22:40:11.447Z,66.10
2023-05-20T22:42:38.153Z,66.90
2023-05-20T22:45:06.531Z,67.70
2023-05-20T22:47:33.313Z,68.70
2023-05-20T22:50:03.358Z,69.20
2023-05-20T22:52:30.332Z,69.60
2023-05-20T22:55:01.252Z,70.20
2023-05-20T22:57:29.114Z,69.90
2023-05-20T22:59:55.861Z,69.50
2023-05-20T23:02:25.338Z,69.70
2023-05-20T23:04:52.250Z,70.00
2023-05-20T23:07:19.490Z,69.50
2023-05-20T23:09:47.139Z,69.50
2023-05-20T23:12:14.453Z,69.30
2023-05-20T23:14:41.256Z,69.90
2023-05-20T23:17:08.117Z,69.40
2023-05-20T23:19:35.029Z,69.60
2023-05-20T23:22:02.903Z,69.50
2023-05-20T23:24:29.761Z,69.30
2023-05-20T23:26:56.848Z,69.80
2023-05-20T23:29:23.615Z,69.80
2023-05-20T23:31:53.654Z,69.50
2023-05-20T23:34:20.345Z,69.30
2023-05-20T23:36:47.369Z,69.10
2023-05-20T23:39:15.232Z,69.50
2023-05-20T23:41:43.695Z,68.80
2023-05-20T23:44:10.774Z,68.40
2023-05-20T23:46:38.216Z,68.50
2023-05-20T23:49:05.841Z,67.80
2023-05-20T23:51:32.643Z,68.40
2023-05-20T23:54:00.698Z,68.70
2023-05-20T23:56:27.425Z,68.80
2023-05-20T23:58:54.622Z,68.50
